sensor_id;sensor_type;location;lat;lon;timestamp;pressure;altitude;pressure_sealevel;temperature;humidity
19811;BME280;10065;49.632;8.346;2023-02-04T00:00:26;101955.56;;;11.49;69.06
19811;BME280;10065;49.632;8.346;2023-02-04T00:02:56;101959.94;;;11.50;69.35
19811;BME280;10065;49.632;8.346;2023-02-04T00:05:24;101959.31;;;11.46;69.70
19811;BME280;10065;49.632;8.346;2023-02-04T00:07:52;101961.97;;;11.46;69.88
19811;BME280;10065;49.632;8.346;2023-02-04T00:10:20;101966.09;;;11.50;69.91
19811;BME280;10065;49.632;8.346;2023-02-04T00:12:48;101977.31;;;11.54;69.70
19811;BME280;10065;49.632;8.346;2023-02-04T00:15:15;101972.84;;;11.54;69.65
19811;BME280;10065;49.632;8.346;2023-02-04T00:17:44;101983.72;;;11.51;69.48
19811;BME280;10065;49.632;8.346;2023-02-04T00:20:12;101978.16;;;11.54;69.42
19811;BME280;10065;49.632;8.346;2023-02-04T00:22:40;101985.28;;;11.54;69.26
19811;BME280;10065;49.632;8.346;2023-02-04T00:25:08;101990.59;;;11.54;69.44
19811;BME280;10065;49.632;8.346;2023-02-04T00:27:36;101993.97;;;11.56;69.36
19811;BME280;10065;49.632;8.346;2023-02-04T00:30:05;101994.84;;;11.56;69.30
19811;BME280;10065;49.632;8.346;2023-02-04T00:32:33;102003.66;;;11.57;69.02
19811;BME280;10065;49.632;8.346;2023-02-04T00:35:03;102003.75;;;11.55;68.84
19811;BME280;10065;49.632;8.346;2023-02-04T00:37:31;102015.34;;;11.54;68.59
19811;BME280;10065;49.632;8.346;2023-02-04T00:39:59;102007.38;;;11.54;68.14
19811;BME280;10065;49.632;8.346;2023-02-04T00:42:27;102017.28;;;11.52;67.41
19811;BME280;10065;49.632;8.346;2023-02-04T00:44:55;102029.59;;;11.53;67.42
19811;BME280;10065;49.632;8.346;2023-02-04T00:47:23;102024.97;;;11.44;66.55
19811;BME280;10065;49.632;8.346;2023-02-04T00:49:51;102014.59;;;11.41;66.42
19811;BME280;10065;49.632;8.346;2023-02-04T00:52:20;102006.13;;;11.36;66.10
19811;BME280;10065;49.632;8.346;2023-02-04T00:54:47;102005.16;;;11.37;66.19
19811;BME280;10065;49.632;8.346;2023-02-04T00:57:15;102009.03;;;11.44;66.41
19811;BME280;10065;49.632;8.346;2023-02-04T00:59:43;102003.72;;;11.44;65.92
19811;BME280;10065;49.632;8.346;2023-02-04T01:02:11;102006.38;;;11.44;65.32
19811;BME280;10065;49.632;8.346;2023-02-04T01:04:39;102004.56;;;11.45;65.30
19811;BME280;10065;49.632;8.346;2023-02-04T01:07:07;102009.88;;;11.45;64.63
19811;BME280;10065;49.632;8.346;2023-02-04T01:09:36;102016.91;;;11.46;64.38
19811;BME280;10065;49.632;8.346;2023-02-04T01:12:04;102012.44;;;11.46;64.16
19811;BME280;10065;49.632;8.346;2023-02-04T01:14:32;102027.41;;;11.47;63.74
19811;BME280;10065;49.632;8.346;2023-02-04T01:17:00;102026.44;;;11.48;63.54
19811;BME280;10065;49.632;8.346;2023-02-04T01:19:27;102026.56;;;11.47;63.36
19811;BME280;10065;49.632;8.346;2023-02-04T01:21:55;102032.84;;;11.46;63.30
19811;BME280;10065;49.632;8.346;2023-02-04T01:24:23;102044.31;;;11.46;63.30
19811;BME280;10065;49.632;8.346;2023-02-04T01:26:52;102041.75;;;11.45;62.84
19811;BME280;10065;49.632;8.346;2023-02-04T01:29:20;102049.88;;;11.43;62.74
19811;BME280;10065;49.632;8.346;2023-02-04T01:31:47;102041.06;;;11.43;62.67
19811;BME280;10065;49.632;8.346;2023-02-04T01:34:15;102043.72;;;11.43;62.65
19811;BME280;10065;49.632;8.346;2023-02-04T01:36:43;102040.22;;;11.42;62.20
19811;BME280;10065;49.632;8.346;2023-02-04T01:39:11;102037.66;;;11.41;61.83
19811;BME280;10065;49.632;8.346;2023-02-04T01:41:39;102037.66;;;11.41;61.79
19811;BME280;10065;49.632;8.346;2023-02-04T01:44:08;102051.69;;;11.43;61.72
19811;BME280;10065;49.632;8.346;2023-02-04T01:46:36;102046.47;;;11.41;61.57
19811;BME280;10065;49.632;8.346;2023-02-04T01:49:05;102059.03;;;11.39;61.61
19811;BME280;10065;49.632;8.346;2023-02-04T01:51:33;102061.56;;;11.41;61.40
19811;BME280;10065;49.632;8.346;2023-02-04T01:54:03;102068.91;;;11.37;61.25
19811;BME280;10065;49.632;8.346;2023-02-04T01:56:31;102070.59;;;11.38;61.28
19811;BME280;10065;49.632;8.346;2023-02-04T01:58:59;102072.41;;;11.38;61.41
19811;BME280;10065;49.632;8.346;2023-02-04T02:01:36;102068.41;;;11.32;61.15
19811;BME280;10065;49.632;8.346;2023-02-04T02:04:04;102064.16;;;11.29;61.68
19811;BME280;10065;49.632;8.346;2023-02-04T02:06:32;102068.41;;;11.32;61.68
19811;BME280;10065;49.632;8.346;2023-02-04T02:09:01;102066.72;;;11.31;61.61
19811;BME280;10065;49.632;8.346;2023-02-04T02:11:29;102068.41;;;11.32;61.57
19811;BME280;10065;49.632;8.346;2023-02-04T02:13:57;102075.44;;;11.33;61.66
19811;BME280;10065;49.632;8.346;2023-02-04T02:16:25;102073.84;;;11.30;61.66
19811;BME280;10065;49.632;8.346;2023-02-04T02:18:54;102078.19;;;11.31;61.95
19811;BME280;10065;49.632;8.346;2023-02-04T02:21:29;102082.53;;;11.32;61.79
19811;BME280;10065;49.632;8.346;2023-02-04T02:24:27;102083.38;;;11.33;62.22
19811;BME280;10065;49.632;8.346;2023-02-04T02:26:56;102090.41;;;11.34;62.38
19811;BME280;10065;49.632;8.346;2023-02-04T02:29:25;102093.28;;;11.31;62.23
19811;BME280;10065;49.632;8.346;2023-02-04T02:31:54;102087.97;;;11.31;62.78
19811;BME280;10065;49.632;8.346;2023-02-04T02:34:24;102093.50;;;11.28;63.05
19811;BME280;10065;49.632;8.346;2023-02-04T02:36:53;102102.19;;;11.30;63.14
19811;BME280;10065;49.632;8.346;2023-02-04T02:39:23;102097.72;;;11.30;63.34
19811;BME280;10065;49.632;8.346;2023-02-04T02:41:51;102091.69;;;11.28;63.55
19811;BME280;10065;49.632;8.346;2023-02-04T02:44:19;102085.41;;;11.29;64.12
19811;BME280;10065;49.632;8.346;2023-02-04T02:46:47;102095.09;;;11.30;64.54
19811;BME280;10065;49.632;8.346;2023-02-04T02:49:17;102088.19;;;11.28;64.75
19811;BME280;10065;49.632;8.346;2023-02-04T02:51:46;102091.09;;;11.25;65.18
19811;BME280;10065;49.632;8.346;2023-02-04T02:54:20;102091.94;;;11.25;65.26
19811;BME280;10065;49.632;8.346;2023-02-04T02:56:52;102089.38;;;11.24;65.19
19811;BME280;10065;49.632;8.346;2023-02-04T02:59:20;102094.69;;;11.24;65.34
19811;BME280;10065;49.632;8.346;2023-02-04T03:01:50;102094.06;;;11.20;65.71
19811;BME280;10065;49.632;8.346;2023-02-04T03:04:21;102100.31;;;11.19;65.77
19811;BME280;10065;49.632;8.346;2023-02-04T03:06:49;102107.56;;;11.17;66.03
19811;BME280;10065;49.632;8.346;2023-02-04T03:09:18;102103.22;;;11.16;66.03
19811;BME280;10065;49.632;8.346;2023-02-04T03:11:46;102109.38;;;11.17;66.09
19811;BME280;10065;49.632;8.346;2023-02-04T03:14:16;102113.00;;;11.16;66.13
19811;BME280;10065;49.632;8.346;2023-02-04T03:16:45;102114.06;;;11.13;66.43
19811;BME280;10065;49.632;8.346;2023-02-04T03:19:14;102123.84;;;11.13;66.26
19811;BME280;10065;49.632;8.346;2023-02-04T03:21:42;102116.31;;;11.07;66.43
19811;BME280;10065;49.632;8.346;2023-02-04T03:24:10;102125.66;;;11.00;66.79
19811;BME280;10065;49.632;8.346;2023-02-04T03:26:38;102123.00;;;11.00;66.83
19811;BME280;10065;49.632;8.346;2023-02-04T03:29:07;102117.00;;;10.98;67.03
19811;BME280;10065;49.632;8.346;2023-02-04T03:31:36;102113.13;;;11.02;66.89
19811;BME280;10065;49.632;8.346;2023-02-04T03:34:04;102128.84;;;11.05;66.61
19811;BME280;10065;49.632;8.346;2023-02-04T03:36:33;102128.47;;;10.98;66.78
19811;BME280;10065;49.632;8.346;2023-02-04T03:39:02;102140.25;;;10.94;66.83
19811;BME280;10065;49.632;8.346;2023-02-04T03:41:29;102137.47;;;10.96;66.90
19811;BME280;10065;49.632;8.346;2023-02-04T03:43:57;102138.63;;;10.91;66.84
19811;BME280;10065;49.632;8.346;2023-02-04T03:46:25;102138.88;;;10.88;67.04
19811;BME280;10065;49.632;8.346;2023-02-04T03:48:55;102138.63;;;10.91;67.04
19811;BME280;10065;49.632;8.346;2023-02-04T03:51:23;102136.97;;;10.90;67.03
19811;BME280;10065;49.632;8.346;2023-02-04T03:53:50;102139.31;;;10.82;67.28
19811;BME280;10065;49.632;8.346;2023-02-04T03:56:18;102143.75;;;10.82;67.34
19811;BME280;10065;49.632;8.346;2023-02-04T03:58:45;102144.00;;;10.79;66.72
19811;BME280;10065;49.632;8.346;2023-02-04T04:01:13;102133.81;;;10.73;67.15
19811;BME280;10065;49.632;8.346;2023-02-04T04:03:41;102143.34;;;10.75;67.17
19811;BME280;10065;49.632;8.346;2023-02-04T04:06:10;102151.31;;;10.75;66.98
19811;BME280;10065;49.632;8.346;2023-02-04T04:08:38;102151.56;;;10.72;66.66
19811;BME280;10065;49.632;8.346;2023-02-04T04:11:05;102148.91;;;10.72;66.65
19811;BME280;10065;49.632;8.346;2023-02-04T04:13:33;102142.84;;;10.70;66.62
19811;BME280;10065;49.632;8.346;2023-02-04T04:16:01;102141.88;;;10.71;66.77
19811;BME280;10065;49.632;8.346;2023-02-04T04:18:30;102144.44;;;10.73;66.60
19811;BME280;10065;49.632;8.346;2023-02-04T04:20:58;102151.22;;;10.77;66.37
19811;BME280;10065;49.632;8.346;2023-02-04T04:23:27;102164.38;;;10.78;66.55
19811;BME280;10065;49.632;8.346;2023-02-04T04:25:54;102158.22;;;10.78;66.38
19811;BME280;10065;49.632;8.346;2023-02-04T04:28:22;102158.97;;;10.80;66.46
19811;BME280;10065;49.632;8.346;2023-02-04T04:30:50;102158.13;;;10.79;66.77
19811;BME280;10065;49.632;8.346;2023-02-04T04:33:18;102161.63;;;10.80;67.02
19811;BME280;10065;49.632;8.346;2023-02-04T04:35:45;102166.94;;;10.80;67.27
19811;BME280;10065;49.632;8.346;2023-02-04T04:38:13;102182.19;;;10.76;67.31
19811;BME280;10065;49.632;8.346;2023-02-04T04:40:42;102192.06;;;10.74;67.47
19811;BME280;10065;49.632;8.346;2023-02-04T04:43:09;102196.00;;;10.69;67.60
19811;BME280;10065;49.632;8.346;2023-02-04T04:45:37;102190.59;;;10.70;67.55
19811;BME280;10065;49.632;8.346;2023-02-04T04:48:05;102202.16;;;10.69;67.57
19811;BME280;10065;49.632;8.346;2023-02-04T04:50:32;102201.22;;;10.70;67.39
19811;BME280;10065;49.632;8.346;2023-02-04T04:53:00;102198.56;;;10.70;67.12
19811;BME280;10065;49.632;8.346;2023-02-04T04:55:28;102194.84;;;10.73;66.96
19811;BME280;10065;49.632;8.346;2023-02-04T04:57:57;102181.69;;;10.71;66.86
19811;BME280;10065;49.632;8.346;2023-02-04T05:00:25;102175.44;;;10.72;66.54
19811;BME280;10065;49.632;8.346;2023-02-04T05:02:52;102179.03;;;10.71;66.67
19811;BME280;10065;49.632;8.346;2023-02-04T05:05:20;102186.16;;;10.71;66.40
19811;BME280;10065;49.632;8.346;2023-02-04T05:07:48;102201.22;;;10.70;66.61
19811;BME280;10065;49.632;8.346;2023-02-04T05:10:16;102196.00;;;10.69;66.25
19811;BME280;10065;49.632;8.346;2023-02-04T05:12:43;102192.00;;;10.63;65.92
19811;BME280;10065;49.632;8.346;2023-02-04T05:15:12;102196.66;;;10.60;66.03
19811;BME280;10065;49.632;8.346;2023-02-04T05:17:40;102200.81;;;10.64;66.11
19811;BME280;10065;49.632;8.346;2023-02-04T05:20:09;102209.38;;;10.67;66.02
19811;BME280;10065;49.632;8.346;2023-02-04T05:22:36;102212.13;;;10.66;66.07
19811;BME280;10065;49.632;8.346;2023-02-04T05:25:04;102209.63;;;10.64;65.93
19811;BME280;10065;49.632;8.346;2023-02-04T05:27:32;102208.00;;;10.62;66.09
19811;BME280;10065;49.632;8.346;2023-02-04T05:30:00;102218.81;;;10.59;66.29
19811;BME280;10065;49.632;8.346;2023-02-04T05:32:29;102228.69;;;10.56;66.28
19811;BME280;10065;49.632;8.346;2023-02-04T05:34:57;102230.50;;;10.56;66.07
19811;BME280;10065;49.632;8.346;2023-02-04T05:37:24;102236.53;;;10.58;66.26
19811;BME280;10065;49.632;8.346;2023-02-04T05:39:52;102240.78;;;10.48;66.37
19811;BME280;10065;49.632;8.346;2023-02-04T05:42:19;102244.38;;;10.47;66.72
19811;BME280;10065;49.632;8.346;2023-02-04T05:44:47;102246.31;;;10.45;66.74
19811;BME280;10065;49.632;8.346;2023-02-04T05:47:15;102242.91;;;10.43;66.90
19811;BME280;10065;49.632;8.346;2023-02-04T05:49:45;102246.31;;;10.45;66.81
19811;BME280;10065;49.632;8.346;2023-02-04T05:52:13;102241.84;;;10.45;66.90
19811;BME280;10065;49.632;8.346;2023-02-04T05:54:40;102248.09;;;10.44;66.87
19811;BME280;10065;49.632;8.346;2023-02-04T05:57:08;102253.50;;;10.43;66.66
19811;BME280;10065;49.632;8.346;2023-02-04T05:59:35;102256.47;;;10.38;66.81
19811;BME280;10065;49.632;8.346;2023-02-04T06:02:03;102262.94;;;10.34;66.67
19811;BME280;10065;49.632;8.346;2023-02-04T06:04:31;102265.78;;;10.31;66.92
19811;BME280;10065;49.632;8.346;2023-02-04T06:07:00;102277.25;;;10.32;66.98
19811;BME280;10065;49.632;8.346;2023-02-04T06:09:28;102278.41;;;10.28;66.87
19811;BME280;10065;49.632;8.346;2023-02-04T06:11:56;102285.63;;;10.26;67.17
19811;BME280;10065;49.632;8.346;2023-02-04T06:14:23;102286.75;;;10.22;67.21
19811;BME280;10065;49.632;8.346;2023-02-04T06:16:51;102283.38;;;10.20;67.19
19811;BME280;10065;49.632;8.346;2023-02-04T06:19:19;102288.78;;;10.18;67.27
19811;BME280;10065;49.632;8.346;2023-02-04T06:21:47;102287.00;;;10.18;67.33
19811;BME280;10065;49.632;8.346;2023-02-04T06:24:16;102293.25;;;10.17;67.19
19811;BME280;10065;49.632;8.346;2023-02-04T06:26:43;102291.34;;;10.20;67.24
19811;BME280;10065;49.632;8.346;2023-02-04T06:29:11;102289.53;;;10.20;67.22
19811;BME280;10065;49.632;8.346;2023-02-04T06:31:39;102298.44;;;10.19;67.23
19811;BME280;10065;49.632;8.346;2023-02-04T06:34:07;102287.84;;;10.19;67.12
19811;BME280;10065;49.632;8.346;2023-02-04T06:36:34;102297.50;;;10.20;67.22
19811;BME280;10065;49.632;8.346;2023-02-04T06:39:02;102287.72;;;10.21;67.00
19811;BME280;10065;49.632;8.346;2023-02-04T06:41:31;102301.19;;;10.17;67.14
19811;BME280;10065;49.632;8.346;2023-02-04T06:43:59;102309.50;;;10.11;67.54
19811;BME280;10065;49.632;8.346;2023-02-04T06:46:26;102306.97;;;10.10;67.82
19811;BME280;10065;49.632;8.346;2023-02-04T06:48:54;102311.91;;;10.02;67.88
19811;BME280;10065;49.632;8.346;2023-02-04T06:51:22;102312.97;;;9.99;68.11
19811;BME280;10065;49.632;8.346;2023-02-04T06:53:50;102315.63;;;9.99;67.90
19811;BME280;10065;49.632;8.346;2023-02-04T06:56:17;102305.63;;;10.03;67.80
19811;BME280;10065;49.632;8.346;2023-02-04T06:58:46;102308.00;;;10.07;67.58
19811;BME280;10065;49.632;8.346;2023-02-04T07:01:14;102317.66;;;10.08;67.59
19811;BME280;10065;49.632;8.346;2023-02-04T07:03:42;102309.50;;;10.11;67.54
19811;BME280;10065;49.632;8.346;2023-02-04T07:06:09;102319.91;;;10.14;67.08
19811;BME280;10065;49.632;8.346;2023-02-04T07:08:37;102329.56;;;10.15;66.98
19811;BME280;10065;49.632;8.346;2023-02-04T07:11:05;102336.00;;;10.11;66.75
19811;BME280;10065;49.632;8.346;2023-02-04T07:13:33;102330.69;;;10.11;66.80
19811;BME280;10065;49.632;8.346;2023-02-04T07:16:02;102342.91;;;10.14;66.79
19811;BME280;10065;49.632;8.346;2023-02-04T07:18:29;102339.31;;;10.15;66.58
19811;BME280;10065;49.632;8.346;2023-02-04T07:20:57;102336.56;;;10.16;66.38
19811;BME280;10065;49.632;8.346;2023-02-04T07:23:25;102346.16;;;10.19;66.37
19811;BME280;10065;49.632;8.346;2023-02-04T07:25:53;102350.69;;;10.17;66.36
19811;BME280;10065;49.632;8.346;2023-02-04T07:28:22;102345.09;;;10.22;66.25
19811;BME280;10065;49.632;8.346;2023-02-04T07:30:50;102356.25;;;10.27;66.18
19811;BME280;10065;49.632;8.346;2023-02-04T07:33:19;102356.03;;;10.30;66.30
19811;BME280;10065;49.632;8.346;2023-02-04T07:35:47;102362.09;;;10.32;66.20
19811;BME280;10065;49.632;8.346;2023-02-04T07:38:14;102365.50;;;10.34;65.94
19811;BME280;10065;49.632;8.346;2023-02-04T07:40:42;102369.03;;;10.34;65.77
19811;BME280;10065;49.632;8.346;2023-02-04T07:43:10;102369.88;;;10.35;65.58
19811;BME280;10065;49.632;8.346;2023-02-04T07:45:38;102373.47;;;10.34;66.59
19811;BME280;10065;49.632;8.346;2023-02-04T07:48:05;102374.41;;;10.33;66.32
19811;BME280;10065;49.632;8.346;2023-02-04T07:50:34;102368.25;;;10.32;66.17
19811;BME280;10065;49.632;8.346;2023-02-04T07:53:02;102370.63;;;10.37;66.04
19811;BME280;10065;49.632;8.346;2023-02-04T07:55:30;102378.38;;;10.40;65.84
19811;BME280;10065;49.632;8.346;2023-02-04T07:57:58;102376.56;;;10.40;65.94
19811;BME280;10065;49.632;8.346;2023-02-04T08:00:26;102380.81;;;10.43;65.69
19811;BME280;10065;49.632;8.346;2023-02-04T08:02:53;102387.41;;;10.50;65.38
19811;BME280;10065;49.632;8.346;2023-02-04T08:05:21;102381.16;;;10.51;64.96
19811;BME280;10065;49.632;8.346;2023-02-04T08:07:50;102387.41;;;10.50;64.79
19811;BME280;10065;49.632;8.346;2023-02-04T08:10:18;102394.25;;;10.54;64.49
19811;BME280;10065;49.632;8.346;2023-02-04T08:12:46;102401.03;;;10.58;64.16
19811;BME280;10065;49.632;8.346;2023-02-04T08:15:14;102400.09;;;10.59;64.11
19811;BME280;10065;49.632;8.346;2023-02-04T08:17:42;102406.91;;;10.63;64.07
19811;BME280;10065;49.632;8.346;2023-02-04T08:20:10;102411.97;;;10.66;63.72
19811;BME280;10065;49.632;8.346;2023-02-04T08:22:38;102417.94;;;10.70;63.49
19811;BME280;10065;49.632;8.346;2023-02-04T08:25:09;102424.00;;;10.72;63.28
19811;BME280;10065;49.632;8.346;2023-02-04T08:27:37;102414.13;;;10.74;62.81
19811;BME280;10065;49.632;8.346;2023-02-04T08:30:06;102425.50;;;10.76;62.60
19811;BME280;10065;49.632;8.346;2023-02-04T08:32:34;102429.75;;;10.78;62.57
19811;BME280;10065;49.632;8.346;2023-02-04T08:35:02;102432.94;;;10.83;62.54
19811;BME280;10065;49.632;8.346;2023-02-04T08:37:32;102439.56;;;10.90;62.48
19811;BME280;10065;49.632;8.346;2023-02-04T08:40:00;102450.53;;;10.99;62.18
19811;BME280;10065;49.632;8.346;2023-02-04T08:42:29;102447.97;;;11.10;61.83
19811;BME280;10065;49.632;8.346;2023-02-04T08:44:57;102447.44;;;11.17;61.42
19811;BME280;10065;49.632;8.346;2023-02-04T08:47:25;102448.09;;;11.21;61.72
19811;BME280;10065;49.632;8.346;2023-02-04T08:49:53;102456.41;;;11.29;61.34
19811;BME280;10065;49.632;8.346;2023-02-04T08:52:21;102452.69;;;11.31;61.47
19811;BME280;10065;49.632;8.346;2023-02-04T08:54:49;102456.41;;;11.29;61.31
19811;BME280;10065;49.632;8.346;2023-02-04T08:57:16;102455.66;;;11.27;61.20
19811;BME280;10065;49.632;8.346;2023-02-04T08:59:46;102458.31;;;11.27;61.57
19811;BME280;10065;49.632;8.346;2023-02-04T09:02:13;102455.34;;;11.31;61.34
19811;BME280;10065;49.632;8.346;2023-02-04T09:04:41;102463.84;;;11.37;61.55
19811;BME280;10065;49.632;8.346;2023-02-04T09:07:09;102465.97;;;11.44;61.17
19811;BME280;10065;49.632;8.346;2023-02-04T09:09:37;102463.31;;;11.44;61.48
19811;BME280;10065;49.632;8.346;2023-02-04T09:12:05;102467.47;;;11.48;61.45
19811;BME280;10065;49.632;8.346;2023-02-04T09:14:33;102470.88;;;11.50;61.02
19811;BME280;10065;49.632;8.346;2023-02-04T09:17:02;102473.44;;;11.52;60.50
19811;BME280;10065;49.632;8.346;2023-02-04T09:19:31;102472.25;;;11.56;60.21
19811;BME280;10065;49.632;8.346;2023-02-04T09:21:59;102480.13;;;11.57;60.18
19811;BME280;10065;49.632;8.346;2023-02-04T09:24:26;102477.66;;;11.54;60.80
19811;BME280;10065;49.632;8.346;2023-02-04T09:26:54;102475.34;;;11.50;60.99
19811;BME280;10065;49.632;8.346;2023-02-04T09:29:22;102471.09;;;11.47;61.49
19811;BME280;10065;49.632;8.346;2023-02-04T09:31:50;102471.09;;;11.47;61.18
19811;BME280;10065;49.632;8.346;2023-02-04T09:34:19;102479.56;;;11.52;61.00
19811;BME280;10065;49.632;8.346;2023-02-04T09:36:47;102479.28;;;11.57;60.84
19811;BME280;10065;49.632;8.346;2023-02-04T09:39:15;102489.38;;;11.64;60.87
19811;BME280;10065;49.632;8.346;2023-02-04T09:41:43;102497.66;;;11.73;60.09
19811;BME280;10065;49.632;8.346;2023-02-04T09:44:14;102489.28;;;11.79;59.35
19811;BME280;10065;49.632;8.346;2023-02-04T09:46:46;102494.50;;;11.93;59.00
19811;BME280;10065;49.632;8.346;2023-02-04T09:49:19;102486.56;;;12.29;57.36
19811;BME280;10065;49.632;8.346;2023-02-04T09:51:47;102498.66;;;12.70;56.08
19811;BME280;10065;49.632;8.346;2023-02-04T09:54:18;102503.94;;;13.06;54.32
19811;BME280;10065;49.632;8.346;2023-02-04T09:56:46;102501.44;;;13.73;52.41
19811;BME280;10065;49.632;8.346;2023-02-04T09:59:16;102503.66;;;14.13;51.18
19811;BME280;10065;49.632;8.346;2023-02-04T10:01:46;102504.09;;;14.62;50.48
19811;BME280;10065;49.632;8.346;2023-02-04T10:04:15;102506.50;;;15.09;48.27
19811;BME280;10065;49.632;8.346;2023-02-04T10:06:44;102508.78;;;15.13;47.63
19811;BME280;10065;49.632;8.346;2023-02-04T10:09:13;102514.66;;;14.96;47.78
19811;BME280;10065;49.632;8.346;2023-02-04T10:11:43;102511.84;;;14.77;48.60
19811;BME280;10065;49.632;8.346;2023-02-04T10:14:16;102513.81;;;14.52;47.99
19811;BME280;10065;49.632;8.346;2023-02-04T10:16:49;102519.19;;;14.30;49.26
19811;BME280;10065;49.632;8.346;2023-02-04T10:19:18;102520.63;;;14.12;49.45
19811;BME280;10065;49.632;8.346;2023-02-04T10:21:48;102521.38;;;14.03;49.90
19811;BME280;10065;49.632;8.346;2023-02-04T10:24:17;102517.13;;;14.22;49.92
19811;BME280;10065;49.632;8.346;2023-02-04T10:26:46;102521.59;;;14.44;49.30
19811;BME280;10065;49.632;8.346;2023-02-04T10:29:16;102529.31;;;14.69;48.62
19811;BME280;10065;49.632;8.346;2023-02-04T10:31:45;102523.81;;;14.93;47.87
19811;BME280;10065;49.632;8.346;2023-02-04T10:34:15;102528.25;;;15.04;47.42
19811;BME280;10065;49.632;8.346;2023-02-04T10:36:46;102533.31;;;15.18;47.19
19811;BME280;10065;49.632;8.346;2023-02-04T10:39:17;102530.22;;;15.02;48.37
19811;BME280;10065;49.632;8.346;2023-02-04T10:41:47;102528.53;;;14.90;48.44
19811;BME280;10065;49.632;8.346;2023-02-04T10:44:17;102529.91;;;14.84;48.23
19811;BME280;10065;49.632;8.346;2023-02-04T10:46:45;102539.75;;;14.84;47.93
19811;BME280;10065;49.632;8.346;2023-02-04T10:49:20;102528.31;;;14.82;48.28
19811;BME280;10065;49.632;8.346;2023-02-04T10:51:50;102531.75;;;14.73;48.01
19811;BME280;10065;49.632;8.346;2023-02-04T10:54:22;102533.34;;;14.64;48.43
19811;BME280;10065;49.632;8.346;2023-02-04T10:56:57;102527.91;;;14.65;47.96
19811;BME280;10065;49.632;8.346;2023-02-04T10:59:26;102532.88;;;14.59;48.30
19811;BME280;10065;49.632;8.346;2023-02-04T11:01:55;102520.38;;;14.37;48.49
19811;BME280;10065;49.632;8.346;2023-02-04T11:04:24;102527.44;;;14.16;49.10
19811;BME280;10065;49.632;8.346;2023-02-04T11:06:54;102517.72;;;13.92;48.56
19811;BME280;10065;49.632;8.346;2023-02-04T11:09:23;102524.50;;;13.63;49.51
19811;BME280;10065;49.632;8.346;2023-02-04T11:11:51;102519.03;;;13.30;50.28
19811;BME280;10065;49.632;8.346;2023-02-04T11:14:24;102522.28;;;12.98;51.69
19811;BME280;10065;49.632;8.346;2023-02-04T11:16:54;102525.06;;;12.73;52.00
19811;BME280;10065;49.632;8.346;2023-02-04T11:19:35;102516.72;;;12.54;51.80
19811;BME280;10065;49.632;8.346;2023-02-04T11:22:17;102523.06;;;12.40;52.43
19811;BME280;10065;49.632;8.346;2023-02-04T11:24:47;102520.00;;;12.21;53.53
19811;BME280;10065;49.632;8.346;2023-02-04T11:27:23;102524.16;;;12.12;53.84
19811;BME280;10065;49.632;8.346;2023-02-04T11:30:03;102525.31;;;12.08;54.23
19811;BME280;10065;49.632;8.346;2023-02-04T11:32:33;102523.41;;;11.97;54.35
19811;BME280;10065;49.632;8.346;2023-02-04T11:35:23;102528.63;;;11.99;54.72
19811;BME280;10065;49.632;8.346;2023-02-04T11:37:51;102526.41;;;11.93;55.17
19811;BME280;10065;49.632;8.346;2023-02-04T11:40:30;102528.31;;;11.91;55.11
19811;BME280;10065;49.632;8.346;2023-02-04T11:43:00;102526.59;;;11.90;55.73
19811;BME280;10065;49.632;8.346;2023-02-04T11:45:31;102533.63;;;11.91;55.06
19811;BME280;10065;49.632;8.346;2023-02-04T11:48:01;102530.03;;;11.92;55.16
19811;BME280;10065;49.632;8.346;2023-02-04T11:50:32;102536.41;;;12.02;55.21
19811;BME280;10065;49.632;8.346;2023-02-04T11:53:01;102537.22;;;12.28;54.64
19811;BME280;10065;49.632;8.346;2023-02-04T11:55:34;102540.47;;;12.57;53.98
19811;BME280;10065;49.632;8.346;2023-02-04T11:58:01;102524.03;;;12.87;52.43
19811;BME280;10065;49.632;8.346;2023-02-04T12:00:32;102525.69;;;13.00;52.66
19811;BME280;10065;49.632;8.346;2023-02-04T12:03:01;102522.97;;;13.37;52.28
19811;BME280;10065;49.632;8.346;2023-02-04T12:05:38;102521.19;;;15.76;46.95
19811;BME280;10065;49.632;8.346;2023-02-04T12:08:10;102518.03;;;18.42;40.85
19811;BME280;10065;49.632;8.346;2023-02-04T12:10:46;102515.34;;;20.26;37.53
19811;BME280;10065;49.632;8.346;2023-02-04T12:13:17;102510.63;;;20.71;35.81
19811;BME280;10065;49.632;8.346;2023-02-04T12:15:53;102508.34;;;21.08;35.65
19811;BME280;10065;49.632;8.346;2023-02-04T12:18:21;102501.94;;;20.93;35.92
19811;BME280;10065;49.632;8.346;2023-02-04T12:20:49;102512.66;;;19.92;35.05
19811;BME280;10065;49.632;8.346;2023-02-04T12:23:17;102508.44;;;18.85;36.97
19811;BME280;10065;49.632;8.346;2023-02-04T12:25:46;102512.66;;;17.68;38.94
19811;BME280;10065;49.632;8.346;2023-02-04T12:28:14;102519.50;;;16.96;41.62
19811;BME280;10065;49.632;8.346;2023-02-04T12:30:42;102520.19;;;16.98;41.11
19811;BME280;10065;49.632;8.346;2023-02-04T12:33:10;102520.34;;;16.86;41.21
19811;BME280;10065;49.632;8.346;2023-02-04T12:35:40;102525.31;;;16.51;41.09
19811;BME280;10065;49.632;8.346;2023-02-04T12:38:08;102530.81;;;16.09;42.08
19811;BME280;10065;49.632;8.346;2023-02-04T12:40:37;102522.66;;;15.60;44.03
19811;BME280;10065;49.632;8.346;2023-02-04T12:43:06;102522.38;;;15.21;45.53
19811;BME280;10065;49.632;8.346;2023-02-04T12:45:35;102519.34;;;14.83;44.99
19811;BME280;10065;49.632;8.346;2023-02-04T12:48:03;102522.34;;;14.57;47.00
19811;BME280;10065;49.632;8.346;2023-02-04T12:50:31;102530.47;;;14.34;47.30
19811;BME280;10065;49.632;8.346;2023-02-04T12:52:59;102528.03;;;14.19;46.94
19811;BME280;10065;49.632;8.346;2023-02-04T12:55:27;102529.38;;;14.14;46.47
19811;BME280;10065;49.632;8.346;2023-02-04T12:57:56;102537.38;;;14.14;46.01